sensor_id;sensor_type;location;lat;lon;timestamp;P1;durP1;ratioP1;P2;durP2;ratioP2
30000;SDS011;16845;48.670;9.000;2022-07-30T00:00:24;5.85;;;3.95;;
30000;SDS011;16845;48.670;9.000;2022-07-30T00:02:52;6.55;;;3.45;;
30000;SDS011;16845;48.670;9.000;2022-07-30T00:05:20;11.30;;;4.00;;
30000;SDS011;16845;48.670;9.000;2022-07-30T00:07:48;7.07;;;3.47;;
30000;SDS011;16845;48.670;9.000;2022-07-30T00:10:16;8.35;;;3.80;;
30000;SDS011;16845;48.670;9.000;2022-07-30T00:12:45;7.90;;;4.10;;
30000;SDS011;16845;48.670;9.000;2022-07-30T00:15:13;12.00;;;4.00;;
30000;SDS011;16845;48.670;9.000;2022-07-30T00:17:42;10.68;;;4.55;;
30000;SDS011;16845;48.670;9.000;2022-07-30T00:20:14;7.78;;;4.25;;
30000;SDS011;16845;48.670;9.000;2022-07-30T00:22:43;6.25;;;4.07;;
30000;SDS011;16845;48.670;9.000;2022-07-30T00:25:11;8.32;;;4.13;;
30000;SDS011;16845;48.670;9.000;2022-07-30T00:27:39;6.25;;;3.65;;
30000;SDS011;16845;48.670;9.000;2022-07-30T00:30:08;8.23;;;4.10;;
30000;SDS011;16845;48.670;9.000;2022-07-30T00:32:36;6.78;;;3.63;;
30000;SDS011;16845;48.670;9.000;2022-07-30T00:35:06;8.98;;;3.60;;
30000;SDS011;16845;48.670;9.000;2022-07-30T00:37:34;5.75;;;4.20;;
30000;SDS011;16845;48.670;9.000;2022-07-30T00:40:03;5.80;;;4.30;;
30000;SDS011;16845;48.670;9.000;2022-07-30T00:42:35;4.10;;;3.70;;
30000;SDS011;16845;48.670;9.000;2022-07-30T00:45:05;6.55;;;3.85;;
30000;SDS011;16845;48.670;9.000;2022-07-30T00:47:34;4.97;;;3.70;;
30000;SDS011;16845;48.670;9.000;2022-07-30T00:50:02;6.78;;;4.00;;
30000;SDS011;16845;48.670;9.000;2022-07-30T00:52:34;6.90;;;4.40;;
30000;SDS011;16845;48.670;9.000;2022-07-30T00:55:04;6.60;;;4.43;;
30000;SDS011;16845;48.670;9.000;2022-07-30T00:57:33;5.03;;;4.35;;
30000;SDS011;16845;48.670;9.000;2022-07-30T01:00:01;7.35;;;3.95;;
30000;SDS011;16845;48.670;9.000;2022-07-30T01:02:31;6.13;;;4.18;;
30000;SDS011;16845;48.670;9.000;2022-07-30T01:04:59;11.32;;;4.72;;
30000;SDS011;16845;48.670;9.000;2022-07-30T01:07:27;8.52;;;4.47;;
30000;SDS011;16845;48.670;9.000;2022-07-30T01:09:57;8.65;;;5.25;;
30000;SDS011;16845;48.670;9.000;2022-07-30T01:12:25;14.75;;;4.40;;
30000;SDS011;16845;48.670;9.000;2022-07-30T01:14:54;6.15;;;4.07;;
30000;SDS011;16845;48.670;9.000;2022-07-30T01:17:24;6.80;;;4.18;;
30000;SDS011;16845;48.670;9.000;2022-07-30T01:19:53;6.95;;;4.32;;
30000;SDS011;16845;48.670;9.000;2022-07-30T01:22:28;7.88;;;4.55;;
30000;SDS011;16845;48.670;9.000;2022-07-30T01:25:09;16.08;;;4.95;;
30000;SDS011;16845;48.670;9.000;2022-07-30T01:27:44;9.15;;;4.95;;
30000;SDS011;16845;48.670;9.000;2022-07-30T01:30:17;9.75;;;4.43;;
30000;SDS011;16845;48.670;9.000;2022-07-30T01:32:46;6.07;;;4.18;;
30000;SDS011;16845;48.670;9.000;2022-07-30T01:35:17;10.27;;;3.75;;
30000;SDS011;16845;48.670;9.000;2022-07-30T01:37:48;5.32;;;4.18;;
30000;SDS011;16845;48.670;9.000;2022-07-30T01:40:18;8.55;;;4.45;;
30000;SDS011;16845;48.670;9.000;2022-07-30T01:42:49;6.65;;;4.55;;
30000;SDS011;16845;48.670;9.000;2022-07-30T01:45:20;7.22;;;4.88;;
30000;SDS011;16845;48.670;9.000;2022-07-30T01:47:50;5.45;;;4.38;;
30000;SDS011;16845;48.670;9.000;2022-07-30T01:50:19;5.88;;;4.28;;
30000;SDS011;16845;48.670;9.000;2022-07-30T01:52:50;6.53;;;5.07;;
30000;SDS011;16845;48.670;9.000;2022-07-30T01:55:20;11.70;;;4.78;;
30000;SDS011;16845;48.670;9.000;2022-07-30T01:57:54;8.50;;;4.30;;
30000;SDS011;16845;48.670;9.000;2022-07-30T02:00:24;5.38;;;4.88;;
30000;SDS011;16845;48.670;9.000;2022-07-30T02:02:56;5.70;;;5.15;;
30000;SDS011;16845;48.670;9.000;2022-07-30T02:05:24;9.70;;;5.30;;
30000;SDS011;16845;48.670;9.000;2022-07-30T02:07:55;11.45;;;5.25;;
30000;SDS011;16845;48.670;9.000;2022-07-30T02:10:40;4.88;;;4.32;;
30000;SDS011;16845;48.670;9.000;2022-07-30T02:13:15;6.30;;;4.93;;
30000;SDS011;16845;48.670;9.000;2022-07-30T02:15:48;5.35;;;4.68;;
30000;SDS011;16845;48.670;9.000;2022-07-30T02:18:22;11.20;;;5.00;;
30000;SDS011;16845;48.670;9.000;2022-07-30T02:20:58;5.97;;;5.38;;
30000;SDS011;16845;48.670;9.000;2022-07-30T02:23:34;7.45;;;5.35;;
30000;SDS011;16845;48.670;9.000;2022-07-30T02:26:05;8.75;;;5.22;;
30000;SDS011;16845;48.670;9.000;2022-07-30T02:28:37;5.70;;;4.88;;
30000;SDS011;16845;48.670;9.000;2022-07-30T02:31:08;7.30;;;5.30;;
30000;SDS011;16845;48.670;9.000;2022-07-30T02:33:43;8.43;;;5.78;;
30000;SDS011;16845;48.670;9.000;2022-07-30T02:36:14;12.13;;;5.47;;
30000;SDS011;16845;48.670;9.000;2022-07-30T02:38:46;14.00;;;7.60;;
30000;SDS011;16845;48.670;9.000;2022-07-30T02:41:17;10.52;;;5.90;;
30000;SDS011;16845;48.670;9.000;2022-07-30T02:43:47;9.15;;;6.35;;
30000;SDS011;16845;48.670;9.000;2022-07-30T02:46:17;7.90;;;5.80;;
30000;SDS011;16845;48.670;9.000;2022-07-30T02:48:46;8.85;;;5.63;;
30000;SDS011;16845;48.670;9.000;2022-07-30T02:51:16;10.32;;;5.72;;
30000;SDS011;16845;48.670;9.000;2022-07-30T02:53:46;7.35;;;5.28;;
30000;SDS011;16845;48.670;9.000;2022-07-30T02:56:17;7.97;;;5.53;;
30000;SDS011;16845;48.670;9.000;2022-07-30T02:58:48;6.55;;;5.47;;
30000;SDS011;16845;48.670;9.000;2022-07-30T03:01:20;8.25;;;5.40;;
30000;SDS011;16845;48.670;9.000;2022-07-30T03:03:51;7.78;;;6.20;;
30000;SDS011;16845;48.670;9.000;2022-07-30T03:06:20;10.35;;;5.60;;
30000;SDS011;16845;48.670;9.000;2022-07-30T03:08:50;8.85;;;6.38;;
30000;SDS011;16845;48.670;9.000;2022-07-30T03:11:20;12.07;;;5.40;;
30000;SDS011;16845;48.670;9.000;2022-07-30T03:13:51;8.77;;;5.97;;
30000;SDS011;16845;48.670;9.000;2022-07-30T03:16:19;8.23;;;5.85;;
30000;SDS011;16845;48.670;9.000;2022-07-30T03:18:49;8.25;;;5.70;;
30000;SDS011;16845;48.670;9.000;2022-07-30T03:21:18;9.43;;;5.82;;
30000;SDS011;16845;48.670;9.000;2022-07-30T03:23:48;12.35;;;6.47;;
30000;SDS011;16845;48.670;9.000;2022-07-30T03:26:16;10.55;;;6.18;;
30000;SDS011;16845;48.670;9.000;2022-07-30T03:28:47;11.43;;;6.70;;
30000;SDS011;16845;48.670;9.000;2022-07-30T03:31:18;15.18;;;6.20;;
30000;SDS011;16845;48.670;9.000;2022-07-30T03:33:46;11.95;;;6.07;;
30000;SDS011;16845;48.670;9.000;2022-07-30T03:36:15;9.18;;;6.28;;
30000;SDS011;16845;48.670;9.000;2022-07-30T03:38:44;13.52;;;6.47;;
30000;SDS011;16845;48.670;9.000;2022-07-30T03:41:13;11.85;;;5.93;;
30000;SDS011;16845;48.670;9.000;2022-07-30T03:43:42;14.02;;;6.82;;
30000;SDS011;16845;48.670;9.000;2022-07-30T03:46:11;10.10;;;5.60;;
30000;SDS011;16845;48.670;9.000;2022-07-30T03:48:41;12.48;;;5.65;;
30000;SDS011;16845;48.670;9.000;2022-07-30T03:51:10;11.88;;;6.13;;
30000;SDS011;16845;48.670;9.000;2022-07-30T03:53:39;12.13;;;5.28;;
30000;SDS011;16845;48.670;9.000;2022-07-30T03:56:08;8.38;;;6.18;;
30000;SDS011;16845;48.670;9.000;2022-07-30T03:58:38;14.20;;;5.97;;
30000;SDS011;16845;48.670;9.000;2022-07-30T04:01:06;9.60;;;5.13;;
30000;SDS011;16845;48.670;9.000;2022-07-30T04:03:34;16.08;;;6.35;;
30000;SDS011;16845;48.670;9.000;2022-07-30T04:06:03;12.73;;;6.03;;
30000;SDS011;16845;48.670;9.000;2022-07-30T04:08:31;12.98;;;6.25;;
30000;SDS011;16845;48.670;9.000;2022-07-30T04:10:59;11.85;;;6.35;;
30000;SDS011;16845;48.670;9.000;2022-07-30T04:13:27;10.20;;;6.00;;
30000;SDS011;16845;48.670;9.000;2022-07-30T04:15:57;9.93;;;5.60;;
30000;SDS011;16845;48.670;9.000;2022-07-30T04:18:49;8.93;;;6.05;;
30000;SDS011;16845;48.670;9.000;2022-07-30T04:21:21;11.10;;;5.70;;
30000;SDS011;16845;48.670;9.000;2022-07-30T04:23:52;7.65;;;5.13;;
30000;SDS011;16845;48.670;9.000;2022-07-30T04:26:29;8.90;;;6.40;;
30000;SDS011;16845;48.670;9.000;2022-07-30T04:29:01;11.57;;;5.85;;
30000;SDS011;16845;48.670;9.000;2022-07-30T04:31:30;12.93;;;5.90;;
30000;SDS011;16845;48.670;9.000;2022-07-30T04:34:06;7.63;;;5.72;;
30000;SDS011;16845;48.670;9.000;2022-07-30T04:36:35;10.90;;;6.60;;
30000;SDS011;16845;48.670;9.000;2022-07-30T04:39:03;11.35;;;6.45;;
30000;SDS011;16845;48.670;9.000;2022-07-30T04:41:31;8.68;;;5.57;;
30000;SDS011;16845;48.670;9.000;2022-07-30T04:44:15;8.13;;;5.78;;
30000;SDS011;16845;48.670;9.000;2022-07-30T04:46:44;7.88;;;5.85;;
30000;SDS011;16845;48.670;9.000;2022-07-30T04:49:12;11.90;;;6.35;;
30000;SDS011;16845;48.670;9.000;2022-07-30T04:51:43;6.35;;;5.13;;
30000;SDS011;16845;48.670;9.000;2022-07-30T04:54:12;13.10;;;5.35;;
30000;SDS011;16845;48.670;9.000;2022-07-30T04:56:41;10.25;;;5.45;;
30000;SDS011;16845;48.670;9.000;2022-07-30T04:59:26;12.18;;;6.00;;
30000;SDS011;16845;48.670;9.000;2022-07-30T05:01:55;9.23;;;5.35;;
30000;SDS011;16845;48.670;9.000;2022-07-30T05:04:25;8.95;;;5.32;;
30000;SDS011;16845;48.670;9.000;2022-07-30T05:06:56;10.18;;;5.25;;
30000;SDS011;16845;48.670;9.000;2022-07-30T05:09:25;12.23;;;6.47;;
30000;SDS011;16845;48.670;9.000;2022-07-30T05:11:54;9.73;;;5.85;;
30000;SDS011;16845;48.670;9.000;2022-07-30T05:14:23;6.72;;;5.53;;
30000;SDS011;16845;48.670;9.000;2022-07-30T05:16:51;8.55;;;5.25;;
30000;SDS011;16845;48.670;9.000;2022-07-30T05:19:21;7.68;;;4.78;;
30000;SDS011;16845;48.670;9.000;2022-07-30T05:21:50;7.38;;;5.13;;
30000;SDS011;16845;48.670;9.000;2022-07-30T05:24:19;7.55;;;5.07;;
30000;SDS011;16845;48.670;9.000;2022-07-30T05:26:48;9.02;;;5.70;;
30000;SDS011;16845;48.670;9.000;2022-07-30T05:29:16;12.65;;;6.65;;
30000;SDS011;16845;48.670;9.000;2022-07-30T05:31:45;8.77;;;5.95;;
30000;SDS011;16845;48.670;9.000;2022-07-30T05:34:14;15.70;;;6.53;;
30000;SDS011;16845;48.670;9.000;2022-07-30T05:36:42;13.98;;;7.78;;
30000;SDS011;16845;48.670;9.000;2022-07-30T05:39:11;12.10;;;5.97;;
30000;SDS011;16845;48.670;9.000;2022-07-30T05:41:41;9.00;;;5.80;;
30000;SDS011;16845;48.670;9.000;2022-07-30T05:44:08;9.90;;;6.03;;
30000;SDS011;16845;48.670;9.000;2022-07-30T05:46:36;13.57;;;5.30;;
30000;SDS011;16845;48.670;9.000;2022-07-30T05:49:04;13.63;;;5.53;;
30000;SDS011;16845;48.670;9.000;2022-07-30T05:51:33;8.57;;;5.65;;
30000;SDS011;16845;48.670;9.000;2022-07-30T05:54:01;13.68;;;5.88;;
30000;SDS011;16845;48.670;9.000;2022-07-30T05:56:29;13.68;;;6.40;;
30000;SDS011;16845;48.670;9.000;2022-07-30T05:58:58;8.80;;;5.35;;
30000;SDS011;16845;48.670;9.000;2022-07-30T06:01:26;9.63;;;5.80;;
30000;SDS011;16845;48.670;9.000;2022-07-30T06:03:54;8.35;;;5.65;;
30000;SDS011;16845;48.670;9.000;2022-07-30T06:06:22;12.55;;;5.97;;
30000;SDS011;16845;48.670;9.000;2022-07-30T06:08:50;10.10;;;7.00;;
30000;SDS011;16845;48.670;9.000;2022-07-30T06:11:18;12.80;;;7.72;;
30000;SDS011;16845;48.670;9.000;2022-07-30T06:13:46;13.43;;;8.15;;
30000;SDS011;16845;48.670;9.000;2022-07-30T06:16:15;18.27;;;7.72;;
30000;SDS011;16845;48.670;9.000;2022-07-30T06:18:43;11.60;;;7.22;;
30000;SDS011;16845;48.670;9.000;2022-07-30T06:21:11;12.27;;;7.28;;
30000;SDS011;16845;48.670;9.000;2022-07-30T06:23:39;11.15;;;7.53;;
30000;SDS011;16845;48.670;9.000;2022-07-30T06:26:07;11.82;;;8.90;;
30000;SDS011;16845;48.670;9.000;2022-07-30T06:28:35;8.93;;;7.28;;
30000;SDS011;16845;48.670;9.000;2022-07-30T06:31:04;13.43;;;6.70;;
30000;SDS011;16845;48.670;9.000;2022-07-30T06:33:34;11.45;;;7.13;;
30000;SDS011;16845;48.670;9.000;2022-07-30T06:36:02;13.65;;;7.03;;
30000;SDS011;16845;48.670;9.000;2022-07-30T06:38:30;9.50;;;7.40;;
30000;SDS011;16845;48.670;9.000;2022-07-30T06:40:58;14.18;;;7.88;;
30000;SDS011;16845;48.670;9.000;2022-07-30T06:43:29;16.50;;;7.20;;
30000;SDS011;16845;48.670;9.000;2022-07-30T06:45:57;12.68;;;6.43;;
30000;SDS011;16845;48.670;9.000;2022-07-30T06:48:26;11.05;;;7.20;;
30000;SDS011;16845;48.670;9.000;2022-07-30T06:50:57;14.25;;;7.15;;
30000;SDS011;16845;48.670;9.000;2022-07-30T06:53:25;13.70;;;7.75;;
30000;SDS011;16845;48.670;9.000;2022-07-30T06:55:53;13.65;;;7.43;;
30000;SDS011;16845;48.670;9.000;2022-07-30T06:58:25;8.77;;;6.32;;
30000;SDS011;16845;48.670;9.000;2022-07-30T07:00:54;12.45;;;8.18;;
30000;SDS011;16845;48.670;9.000;2022-07-30T07:03:22;12.05;;;6.95;;
30000;SDS011;16845;48.670;9.000;2022-07-30T07:06:06;13.98;;;7.22;;
30000;SDS011;16845;48.670;9.000;2022-07-30T07:08:34;8.48;;;6.38;;
30000;SDS011;16845;48.670;9.000;2022-07-30T07:11:02;14.20;;;6.85;;
30000;SDS011;16845;48.670;9.000;2022-07-30T07:13:30;9.32;;;6.32;;
30000;SDS011;16845;48.670;9.000;2022-07-30T07:15:58;10.82;;;6.68;;
30000;SDS011;16845;48.670;9.000;2022-07-30T07:18:26;11.98;;;5.93;;
30000;SDS011;16845;48.670;9.000;2022-07-30T07:20:54;9.35;;;5.70;;
30000;SDS011;16845;48.670;9.000;2022-07-30T07:23:23;8.93;;;5.70;;
30000;SDS011;16845;48.670;9.000;2022-07-30T07:26:08;10.75;;;6.18;;
30000;SDS011;16845;48.670;9.000;2022-07-30T07:28:37;13.73;;;5.25;;
30000;SDS011;16845;48.670;9.000;2022-07-30T07:31:06;8.52;;;5.07;;
30000;SDS011;16845;48.670;9.000;2022-07-30T07:33:34;9.80;;;5.05;;
30000;SDS011;16845;48.670;9.000;2022-07-30T07:36:02;5.45;;;4.63;;
30000;SDS011;16845;48.670;9.000;2022-07-30T07:38:32;8.35;;;4.63;;
30000;SDS011;16845;48.670;9.000;2022-07-30T07:41:01;9.80;;;4.50;;
30000;SDS011;16845;48.670;9.000;2022-07-30T07:43:30;5.38;;;4.28;;
30000;SDS011;16845;48.670;9.000;2022-07-30T07:45:58;9.38;;;3.88;;
30000;SDS011;16845;48.670;9.000;2022-07-30T07:48:26;7.80;;;3.53;;
30000;SDS011;16845;48.670;9.000;2022-07-30T07:50:54;5.97;;;4.63;;
30000;SDS011;16845;48.670;9.000;2022-07-30T07:53:25;7.85;;;3.65;;
30000;SDS011;16845;48.670;9.000;2022-07-30T07:55:55;8.38;;;3.70;;
30000;SDS011;16845;48.670;9.000;2022-07-30T07:58:23;7.00;;;3.65;;
30000;SDS011;16845;48.670;9.000;2022-07-30T08:00:52;3.53;;;2.95;;
30000;SDS011;16845;48.670;9.000;2022-07-30T08:03:20;6.20;;;3.40;;
30000;SDS011;16845;48.670;9.000;2022-07-30T08:05:48;11.77;;;3.83;;
30000;SDS011;16845;48.670;9.000;2022-07-30T08:08:32;6.45;;;2.70;;
30000;SDS011;16845;48.670;9.000;2022-07-30T08:11:03;5.93;;;2.50;;
30000;SDS011;16845;48.670;9.000;2022-07-30T08:13:33;5.80;;;2.40;;
30000;SDS011;16845;48.670;9.000;2022-07-30T08:16:17;4.72;;;2.75;;
30000;SDS011;16845;48.670;9.000;2022-07-30T08:18:45;9.20;;;3.13;;
30000;SDS011;16845;48.670;9.000;2022-07-30T08:21:13;6.50;;;2.88;;
30000;SDS011;16845;48.670;9.000;2022-07-30T08:23:41;5.60;;;2.03;;
30000;SDS011;16845;48.670;9.000;2022-07-30T08:26:10;4.80;;;2.40;;
30000;SDS011;16845;48.670;9.000;2022-07-30T08:28:38;5.80;;;2.28;;
30000;SDS011;16845;48.670;9.000;2022-07-30T08:31:08;4.35;;;2.22;;
30000;SDS011;16845;48.670;9.000;2022-07-30T08:33:36;6.97;;;2.28;;
30000;SDS011;16845;48.670;9.000;2022-07-30T08:36:04;5.25;;;2.42;;
30000;SDS011;16845;48.670;9.000;2022-07-30T08:38:35;9.50;;;2.40;;
30000;SDS011;16845;48.670;9.000;2022-07-30T08:41:04;7.95;;;2.10;;
30000;SDS011;16845;48.670;9.000;2022-07-30T08:43:34;6.80;;;2.50;;
30000;SDS011;16845;48.670;9.000;2022-07-30T08:46:03;5.05;;;2.25;;
30000;SDS011;16845;48.670;9.000;2022-07-30T08:48:35;4.00;;;2.08;;
30000;SDS011;16845;48.670;9.000;2022-07-30T08:51:03;2.28;;;1.98;;
30000;SDS011;16845;48.670;9.000;2022-07-30T08:53:32;11.40;;;2.33;;
30000;SDS011;16845;48.670;9.000;2022-07-30T08:56:01;5.60;;;2.40;;
30000;SDS011;16845;48.670;9.000;2022-07-30T08:58:29;9.48;;;2.08;;
30000;SDS011;16845;48.670;9.000;2022-07-30T09:01:00;4.15;;;2.47;;
30000;SDS011;16845;48.670;9.000;2022-07-30T09:03:29;4.88;;;2.17;;
30000;SDS011;16845;48.670;9.000;2022-07-30T09:05:57;4.72;;;2.30;;
30000;SDS011;16845;48.670;9.000;2022-07-30T09:08:27;12.70;;;2.28;;
30000;SDS011;16845;48.670;9.000;2022-07-30T09:10:55;6.32;;;1.90;;
30000;SDS011;16845;48.670;9.000;2022-07-30T09:13:24;15.43;;;2.00;;
30000;SDS011;16845;48.670;9.000;2022-07-30T09:15:53;3.28;;;1.45;;
30000;SDS011;16845;48.670;9.000;2022-07-30T09:18:27;5.32;;;1.35;;
30000;SDS011;16845;48.670;9.000;2022-07-30T09:20:57;4.25;;;1.50;;
30000;SDS011;16845;48.670;9.000;2022-07-30T09:23:26;4.47;;;2.08;;
30000;SDS011;16845;48.670;9.000;2022-07-30T09:25:56;6.10;;;2.50;;
30000;SDS011;16845;48.670;9.000;2022-07-30T09:28:29;3.72;;;1.63;;
30000;SDS011;16845;48.670;9.000;2022-07-30T09:30:58;6.93;;;2.22;;
30000;SDS011;16845;48.670;9.000;2022-07-30T09:33:32;5.80;;;2.03;;
30000;SDS011;16845;48.670;9.000;2022-07-30T09:36:03;5.63;;;1.75;;
30000;SDS011;16845;48.670;9.000;2022-07-30T09:41:18;3.65;;;2.30;;
30000;SDS011;16845;48.670;9.000;2022-07-30T09:44:05;2.92;;;1.50;;
30000;SDS011;16845;48.670;9.000;2022-07-30T09:46:40;4.78;;;1.70;;
30000;SDS011;16845;48.670;9.000;2022-07-30T09:49:15;4.23;;;1.83;;
30000;SDS011;16845;48.670;9.000;2022-07-30T09:51:44;3.78;;;1.60;;
30000;SDS011;16845;48.670;9.000;2022-07-30T09:54:23;2.83;;;2.00;;
30000;SDS011;16845;48.670;9.000;2022-07-30T09:57:04;2.22;;;1.45;;
30000;SDS011;16845;48.670;9.000;2022-07-30T09:59:53;6.13;;;1.98;;
30000;SDS011;16845;48.670;9.000;2022-07-30T10:02:29;5.35;;;1.95;;
30000;SDS011;16845;48.670;9.000;2022-07-30T10:05:10;5.25;;;1.60;;
30000;SDS011;16845;48.670;9.000;2022-07-30T10:07:47;1.80;;;1.40;;
30000;SDS011;16845;48.670;9.000;2022-07-30T10:10:18;4.80;;;1.50;;
30000;SDS011;16845;48.670;9.000;2022-07-30T10:12:52;3.85;;;1.65;;
30000;SDS011;16845;48.670;9.000;2022-07-30T10:15:26;4.38;;;1.55;;
30000;SDS011;16845;48.670;9.000;2022-07-30T10:17:58;6.78;;;1.70;;
30000;SDS011;16845;48.670;9.000;2022-07-30T10:20:28;2.63;;;1.60;;
30000;SDS011;16845;48.670;9.000;2022-07-30T10:22:57;5.03;;;1.33;;
30000;SDS011;16845;48.670;9.000;2022-07-30T10:25:33;5.85;;;1.50;;
30000;SDS011;16845;48.670;9.000;2022-07-30T10:28:20;4.05;;;1.40;;
30000;SDS011;16845;48.670;9.000;2022-07-30T10:30:49;1.67;;;1.40;;
30000;SDS011;16845;48.670;9.000;2022-07-30T10:33:18;5.85;;;1.35;;
30000;SDS011;16845;48.670;9.000;2022-07-30T10:36:06;3.47;;;1.70;;
30000;SDS011;16845;48.670;9.000;2022-07-30T10:38:39;2.63;;;1.50;;
30000;SDS011;16845;48.670;9.000;2022-07-30T10:41:22;3.03;;;1.40;;
30000;SDS011;16845;48.670;9.000;2022-07-30T10:44:26;8.68;;;1.90;;
30000;SDS011;16845;48.670;9.000;2022-07-30T10:47:15;3.78;;;1.20;;
30000;SDS011;16845;48.670;9.000;2022-07-30T10:52:48;6.35;;;1.25;;
30000;SDS011;16845;48.670;9.000;2022-07-30T10:55:20;10.50;;;1.88;;
30000;SDS011;16845;48.670;9.000;2022-07-30T10:58:04;5.00;;;1.58;;
30000;SDS011;16845;48.670;9.000;2022-07-30T11:03:25;2.25;;;1.10;;
30000;SDS011;16845;48.670;9.000;2022-07-30T11:08:55;5.45;;;1.63;;
30000;SDS011;16845;48.670;9.000;2022-07-30T11:11:42;4.43;;;1.77;;
30000;SDS011;16845;48.670;9.000;2022-07-30T11:17:21;2.97;;;1.35;;
30000;SDS011;16845;48.670;9.000;2022-07-30T11:22:37;5.00;;;1.65;;
30000;SDS011;16845;48.670;9.000;2022-07-30T11:25:08;3.75;;;1.10;;
30000;SDS011;16845;48.670;9.000;2022-07-30T11:34:25;2.28;;;1.20;;
30000;SDS011;16845;48.670;9.000;2022-07-30T11:37:06;4.47;;;1.10;;
30000;SDS011;16845;48.670;9.000;2022-07-30T11:40:08;1.92;;;1.10;;
30000;SDS011;16845;48.670;9.000;2022-07-30T11:42:38;2.30;;;1.50;;
30000;SDS011;16845;48.670;9.000;2022-07-30T11:45:23;1.65;;;1.10;;
30000;SDS011;16845;48.670;9.000;2022-07-30T11:47:58;2.38;;;1.33;;
30000;SDS011;16845;48.670;9.000;2022-07-30T11:50:27;6.78;;;1.77;;
30000;SDS011;16845;48.670;9.000;2022-07-30T11:52:58;2.08;;;1.35;;
30000;SDS011;16845;48.670;9.000;2022-07-30T11:55:29;4.43;;;1.52;;
30000;SDS011;16845;48.670;9.000;2022-07-30T11:58:02;3.30;;;1.65;;
30000;SDS011;16845;48.670;9.000;2022-07-30T12:00:32;3.08;;;1.20;;
30000;SDS011;16845;48.670;9.000;2022-07-30T12:03:11;1.67;;;1.10;;
30000;SDS011;16845;48.670;9.000;2022-07-30T12:05:40;3.25;;;1.10;;
30000;SDS011;16845;48.670;9.000;2022-07-30T12:08:10;1.58;;;1.10;;
30000;SDS011;16845;48.670;9.000;2022-07-30T12:11:00;6.65;;;1.40;;
30000;SDS011;16845;48.670;9.000;2022-07-30T12:13:28;2.45;;;0.98;;
30000;SDS011;16845;48.670;9.000;2022-07-30T12:16:11;2.38;;;1.33;;
30000;SDS011;16845;48.670;9.000;2022-07-30T12:18:41;3.33;;;1.00;;
30000;SDS011;16845;48.670;9.000;2022-07-30T12:21:10;4.95;;;1.10;;
30000;SDS011;16845;48.670;9.000;2022-07-30T12:23:52;3.45;;;1.23;;
30000;SDS011;16845;48.670;9.000;2022-07-30T12:26:24;7.88;;;1.25;;
30000;SDS011;16845;48.670;9.000;2022-07-30T12:28:54;5.00;;;1.25;;
30000;SDS011;16845;48.670;9.000;2022-07-30T12:31:23;2.78;;;1.20;;
30000;SDS011;16845;48.670;9.000;2022-07-30T12:33:53;1.63;;;0.90;;
30000;SDS011;16845;48.670;9.000;2022-07-30T12:36:28;2.78;;;0.98;;
30000;SDS011;16845;48.670;9.000;2022-07-30T12:38:58;3.42;;;1.17;;
30000;SDS011;16845;48.670;9.000;2022-07-30T12:41:40;4.82;;;1.63;;
30000;SDS011;16845;48.670;9.000;2022-07-30T12:44:09;7.03;;;1.17;;
30000;SDS011;16845;48.670;9.000;2022-07-30T12:46:38;1.83;;;1.10;;
30000;SDS011;16845;48.670;9.000;2022-07-30T12:49:07;1.55;;;1.10;;
30000;SDS011;16845;48.670;9.000;2022-07-30T12:51:49;5.07;;;1.23;;
30000;SDS011;16845;48.670;9.000;2022-07-30T12:54:26;3.35;;;1.13;;
30000;SDS011;16845;48.670;9.000;2022-07-30T12:56:57;1.85;;;1.17;;
30000;SDS011;16845;48.670;9.000;2022-07-30T12:59:27;5.57;;;1.17;;
30000;SDS011;16845;48.670;9.000;2022-07-30T13:01:56;1.67;;;1.20;;
30000;SDS011;16845;48.670;9.000;2022-07-30T13:04:26;5.50;;;1.15;;
30000;SDS011;16845;48.670;9.000;2022-07-30T13:07:04;2.22;;;1.00;;
30000;SDS011;16845;48.670;9.000;2022-07-30T13:09:33;3.35;;;1.23;;
30000;SDS011;16845;48.670;9.000;2022-07-30T13:12:04;2.63;;;0.70;;
30000;SDS011;16845;48.670;9.000;2022-07-30T13:14:35;3.47;;;1.30;;
30000;SDS011;16845;48.670;9.000;2022-07-30T13:17:03;2.38;;;0.95;;
30000;SDS011;16845;48.670;9.000;2022-07-30T13:19:32;3.63;;;1.10;;
30000;SDS011;16845;48.670;9.000;2022-07-30T13:22:00;5.32;;;1.20;;
30000;SDS011;16845;48.670;9.000;2022-07-30T13:24:28;2.58;;;1.02;;
30000;SDS011;16845;48.670;9.000;2022-07-30T13:26:56;5.45;;;1.42;;
30000;SDS011;16845;48.670;9.000;2022-07-30T13:29:25;6.72;;;1.20;;
30000;SDS011;16845;48.670;9.000;2022-07-30T13:31:53;3.55;;;1.20;;
30000;SDS011;16845;48.670;9.000;2022-07-30T13:34:21;5.03;;;1.92;;
30000;SDS011;16845;48.670;9.000;2022-07-30T13:36:49;2.25;;;1.20;;
30000;SDS011;16845;48.670;9.000;2022-07-30T13:39:17;4.65;;;1.30;;
30000;SDS011;16845;48.670;9.000;2022-07-30T13:41:45;2.97;;;1.30;;
30000;SDS011;16845;48.670;9.000;2022-07-30T13:44:13;6.65;;;2.80;;
30000;SDS011;16845;48.670;9.000;2022-07-30T13:46:42;10.32;;;1.63;;
30000;SDS011;16845;48.670;9.000;2022-07-30T13:49:10;5.22;;;1.75;;
30000;SDS011;16845;48.670;9.000;2022-07-30T13:51:38;2.65;;;1.08;;
30000;SDS011;16845;48.670;9.000;2022-07-30T13:54:06;8.82;;;1.50;;
30000;SDS011;16845;48.670;9.000;2022-07-30T13:56:39;3.53;;;1.77;;
30000;SDS011;16845;48.670;9.000;2022-07-30T13:59:07;3.70;;;1.67;;
30000;SDS011;16845;48.670;9.000;2022-07-30T14:01:35;3.63;;;1.85;;
30000;SDS011;16845;48.670;9.000;2022-07-30T14:04:04;4.65;;;1.60;;
30000;SDS011;16845;48.670;9.000;2022-07-30T14:06:33;3.78;;;1.48;;
30000;SDS011;16845;48.670;9.000;2022-07-30T14:09:02;3.97;;;1.58;;
30000;SDS011;16845;48.670;9.000;2022-07-30T14:11:30;1.77;;;1.38;;
30000;SDS011;16845;48.670;9.000;2022-07-30T14:13:58;7.43;;;1.80;;
30000;SDS011;16845;48.670;9.000;2022-07-30T14:16:26;2.65;;;1.58;;
30000;SDS011;16845;48.670;9.000;2022-07-30T14:19:12;4.82;;;1.45;;
30000;SDS011;16845;48.670;9.000;2022-07-30T14:21:49;5.00;;;1.52;;
30000;SDS011;16845;48.670;9.000;2022-07-30T14:24:19;5.60;;;1.25;;
30000;SDS011;16845;48.670;9.000;2022-07-30T14:26:48;3.92;;;1.48;;
30000;SDS011;16845;48.670;9.000;2022-07-30T14:29:24;3.33;;;1.48;;
30000;SDS011;16845;48.670;9.000;2022-07-30T14:31:52;4.78;;;1.40;;
30000;SDS011;16845;48.670;9.000;2022-07-30T14:34:21;1.05;;;0.98;;
30000;SDS011;16845;48.670;9.000;2022-07-30T14:36:49;3.30;;;1.33;;
30000;SDS011;16845;48.670;9.000;2022-07-30T14:39:17;1.75;;;1.02;;
30000;SDS011;16845;48.670;9.000;2022-07-30T14:41:46;3.00;;;1.40;;
30000;SDS011;16845;48.670;9.000;2022-07-30T14:44:18;1.92;;;1.23;;
30000;SDS011;16845;48.670;9.000;2022-07-30T14:46:46;1.63;;;1.10;;
30000;SDS011;16845;48.670;9.000;2022-07-30T14:49:18;4.75;;;1.42;;
30000;SDS011;16845;48.670;9.000;2022-07-30T14:51:47;2.05;;;1.20;;
30000;SDS011;16845;48.670;9.000;2022-07-30T14:54:15;1.73;;;1.10;;
30000;SDS011;16845;48.670;9.000;2022-07-30T14:56:43;4.55;;;1.27;;
30000;SDS011;16845;48.670;9.000;2022-07-30T14:59:11;4.03;;;1.45;;
30000;SDS011;16845;48.670;9.000;2022-07-30T15:01:39;12.82;;;1.63;;
30000;SDS011;16845;48.670;9.000;2022-07-30T15:04:09;3.47;;;1.55;;
30000;SDS011;16845;48.670;9.000;2022-07-30T15:06:37;5.60;;;1.38;;
30000;SDS011;16845;48.670;9.000;2022-07-30T15:09:08;3.55;;;1.40;;
30000;SDS011;16845;48.670;9.000;2022-07-30T15:11:36;2.28;;;1.27;;
30000;SDS011;16845;48.670;9.000;2022-07-30T15:14:25;4.93;;;1.40;;
30000;SDS011;16845;48.670;9.000;2022-07-30T15:16:53;2.58;;;1.23;;
30000;SDS011;16845;48.670;9.000;2022-07-30T15:19:29;5.32;;;1.35;;
30000;SDS011;16845;48.670;9.000;2022-07-30T15:21:57;2.42;;;1.25;;
30000;SDS011;16845;48.670;9.000;2022-07-30T15:24:29;4.05;;;1.58;;
30000;SDS011;16845;48.670;9.000;2022-07-30T15:26:57;4.47;;;1.40;;
30000;SDS011;16845;48.670;9.000;2022-07-30T15:29:26;4.47;;;1.45;;
30000;SDS011;16845;48.670;9.000;2022-07-30T15:31:55;3.42;;;1.35;;